Time;durP1;ratioP1;P1;durP2;ratioP2;P2;SDS_P1;SDS_P2;PMS_P1;PMS_P2;Temp;Humidity;BMP_temperature;BMP_pressure;BME280_temperature;BME280_humidity;BME280_pressure;Samples;Min_cycle;Max_cycle;Signal;HPM_P1;HPM_P2
2022/05/28 00:01:38;;;;;;;3.63;1.63;;;8.80;99.90;;;;;;5221817;28;20461;-53
2022/05/28 00:04:09;;;;;;;6.60;2.33;;;8.80;99.90;;;;;;5215310;28;20183;-55
2022/05/28 00:06:39;;;;;;;8.00;1.87;;;8.80;99.90;;;;;;5225251;28;20428;-54
2022/05/28 00:09:10;;;;;;;3.17;0.80;;;8.90;99.90;;;;;;5227109;28;20199;-55
2022/05/28 00:11:41;;;;;;;5.90;1.50;;;8.90;99.90;;;;;;5226085;28;20199;-55
2022/05/28 00:14:12;;;;;;;3.37;2.27;;;8.90;99.90;;;;;;5225850;28;20317;-54
2022/05/28 00:16:43;;;;;;;6.00;2.00;;;8.90;99.90;;;;;;5226577;28;20528;-53
2022/05/28 00:19:14;;;;;;;7.90;1.27;;;8.80;99.90;;;;;;5223722;28;20197;-53
2022/05/28 00:21:44;;;;;;;10.10;2.00;;;8.80;99.90;;;;;;5227634;28;20905;-54
2022/05/28 00:24:15;;;;;;;8.30;3.47;;;8.80;99.90;;;;;;5223036;28;20598;-55
2022/05/28 00:26:46;;;;;;;3.10;1.60;;;8.90;99.90;;;;;;5230883;28;20187;-53
2022/05/28 00:29:16;;;;;;;4.33;1.20;;;8.90;99.90;;;;;;5224557;28;20475;-53
2022/05/28 00:31:47;;;;;;;13.70;1.57;;;8.80;99.90;;;;;;5237883;28;20207;-52
2022/05/28 00:34:17;;;;;;;6.33;1.63;;;8.80;99.90;;;;;;5226928;28;20263;-54
2022/05/28 00:36:48;;;;;;;7.60;1.40;;;8.80;99.90;;;;;;5229443;28;20174;-56
2022/05/28 00:39:18;;;;;;;6.80;2.43;;;8.80;99.90;;;;;;5235482;28;20195;-53
2022/05/28 00:41:49;;;;;;;4.80;2.50;;;8.80;99.90;;;;;;5230316;28;20223;-54
2022/05/28 00:44:20;;;;;;;11.63;3.03;;;8.80;99.90;;;;;;5224214;28;20189;-53
2022/05/28 00:46:54;;;;;;;7.23;1.80;;;8.80;99.90;;;;;;5234986;28;20277;-54
2022/05/28 00:49:28;;;;;;;8.27;1.73;;;8.80;99.90;;;;;;5230495;28;20211;-52
2022/05/28 00:52:01;;;;;;;8.53;1.47;;;8.80;99.90;;;;;;5231696;28;20451;-54
2022/05/28 00:54:40;;;;;;;5.37;1.73;;;8.80;99.90;;;;;;5237549;28;20504;-54
2022/05/28 00:57:12;;;;;;;1.43;1.33;;;8.80;99.90;;;;;;5234896;28;20702;-56
2022/05/28 00:59:44;;;;;;;6.40;2.23;;;8.80;99.90;;;;;;5218979;28;20954;-54
2022/05/28 01:02:33;;;;;;;7.73;1.40;;;8.80;99.90;;;;;;5229364;28;20755;-53
2022/05/28 01:05:47;;;;;;;20.97;2.17;;;8.80;99.90;;;;;;5226457;28;20449;-53
2022/05/28 01:08:30;;;;;;;5.50;1.40;;;8.90;99.90;;;;;;5217934;28;20454;-54
2022/05/28 01:11:32;;;;;;;3.17;1.43;;;8.80;99.90;;;;;;5224206;28;20487;-53
2022/05/28 01:14:21;;;;;;;5.30;2.17;;;8.90;99.90;;;;;;5229898;28;21009;-55
2022/05/28 01:16:55;;;;;;;10.80;1.90;;;8.90;99.90;;;;;;5219868;28;20940;-53
2022/05/28 01:19:51;;;;;;;11.17;1.97;;;8.90;99.90;;;;;;5228596;28;20466;-53
2022/05/28 01:23:08;;;;;;;1.47;1.20;;;8.90;99.90;;;;;;5233739;28;20433;-54
2022/05/28 01:25:54;;;;;;;7.93;1.50;;;8.80;99.90;;;;;;5227979;28;20455;-54
2022/05/28 01:28:32;;;;;;;11.57;1.90;;;8.80;99.90;;;;;;5227585;28;20553;-54
2022/05/28 01:31:05;;;;;;;12.53;2.53;;;8.80;99.90;;;;;;5216704;28;20441;-53
2022/05/28 01:33:38;;;;;;;4.90;2.13;;;8.80;99.90;;;;;;5215485;28;20422;-52
2022/05/28 01:36:11;;;;;;;6.03;1.83;;;8.80;99.90;;;;;;5230777;28;20445;-53
2022/05/28 01:38:44;;;;;;;2.00;1.70;;;8.80;99.90;;;;;;5232144;28;20449;-53
2022/05/28 01:41:15;;;;;;;6.20;2.23;;;8.70;99.90;;;;;;5227439;28;20544;-53
2022/05/28 01:43:48;;;;;;;7.90;1.70;;;8.90;99.90;;;;;;5219906;28;20451;-54
2022/05/28 01:46:20;;;;;;;3.70;1.57;;;8.90;99.90;;;;;;5226577;28;20453;-53
2022/05/28 01:48:54;;;;;;;7.60;1.60;;;8.90;99.90;;;;;;5219149;28;20453;-55
2022/05/28 01:51:32;;;;;;;19.73;2.33;;;8.90;99.90;;;;;;5227762;28;20437;-55
2022/05/28 01:54:13;;;;;;;5.80;1.60;;;8.90;99.90;;;;;;5226108;28;20445;-54
2022/05/28 01:56:46;;;;;;;8.40;1.60;;;8.80;99.90;;;;;;5227462;28;20967;-53
2022/05/28 01:59:24;;;;;;;5.10;2.27;;;8.80;99.90;;;;;;5220034;28;20469;-53
2022/05/28 02:01:56;;;;;;;9.10;2.10;;;8.80;99.90;;;;;;5224219;28;20442;-54
2022/05/28 02:04:29;;;;;;;8.20;1.80;;;8.80;99.90;;;;;;5222887;28;20469;-54
2022/05/28 02:07:02;;;;;;;13.57;3.20;;;8.80;99.90;;;;;;5211641;28;20438;-53
2022/05/28 02:09:41;;;;;;;9.07;2.27;;;8.70;99.90;;;;;;5229212;28;20827;-52
2022/05/28 02:12:33;;;;;;;4.53;1.90;;;8.80;99.90;;;;;;5229986;28;20815;-53
2022/05/28 02:15:10;;;;;;;4.40;2.00;;;8.80;99.90;;;;;;5214018;28;20525;-54
2022/05/28 02:17:55;;;;;;;7.70;2.00;;;8.90;99.90;;;;;;5215697;28;20425;-53
2022/05/28 02:20:36;;;;;;;7.67;1.90;;;8.80;99.90;;;;;;5218924;28;20460;-54
2022/05/28 02:23:29;;;;;;;4.90;2.10;;;8.90;99.90;;;;;;5228380;28;20520;-54
2022/05/28 02:26:02;;;;;;;17.27;1.90;;;8.80;99.90;;;;;;5223478;28;20511;-52
2022/05/28 02:28:34;;;;;;;9.53;2.43;;;8.80;99.90;;;;;;5222438;28;21132;-53
2022/05/28 02:31:24;;;;;;;7.10;1.90;;;8.80;99.90;;;;;;5227995;28;20473;-55
2022/05/28 02:33:55;;;;;;;5.77;2.57;;;8.70;99.90;;;;;;5219908;28;20441;-57
2022/05/28 02:36:27;;;;;;;5.53;2.07;;;8.70;99.90;;;;;;5221422;28;20463;-54
2022/05/28 02:38:57;;;;;;;5.60;2.10;;;8.80;99.90;;;;;;5211583;28;20437;-54
2022/05/28 02:41:28;;;;;;;11.13;1.90;;;8.70;99.90;;;;;;5217640;28;20476;-53
2022/05/28 02:43:58;;;;;;;13.80;2.83;;;8.70;99.90;;;;;;5220819;28;20651;-54
2022/05/28 02:46:29;;;;;;;11.33;2.60;;;8.70;99.90;;;;;;5217818;28;20196;-53
2022/05/28 02:49:00;;;;;;;4.60;1.37;;;8.80;99.90;;;;;;5220126;28;20186;-56
2022/05/28 02:51:30;;;;;;;6.10;1.87;;;8.80;99.90;;;;;;5213900;28;20261;-54
2022/05/28 02:54:01;;;;;;;4.53;1.87;;;8.70;99.90;;;;;;5226110;28;20433;-54
2022/05/28 02:56:31;;;;;;;8.53;1.70;;;8.80;99.90;;;;;;5224123;28;20538;-52
2022/05/28 02:59:02;;;;;;;3.70;1.77;;;8.70;99.90;;;;;;5222177;28;20329;-53
2022/05/28 03:01:34;;;;;;;7.83;1.80;;;8.80;99.90;;;;;;5231678;28;20830;-54
2022/05/28 03:04:07;;;;;;;3.00;1.90;;;8.80;99.90;;;;;;5240682;28;20225;-57
2022/05/28 03:06:37;;;;;;;3.87;1.50;;;8.80;99.90;;;;;;5218581;28;20936;-53
2022/05/28 03:09:09;;;;;;;7.30;2.43;;;8.80;99.90;;;;;;5226348;28;20453;-54
2022/05/28 03:11:39;;;;;;;5.30;2.40;;;8.80;99.90;;;;;;5226354;28;20195;-54
2022/05/28 03:14:11;;;;;;;7.27;2.03;;;8.90;99.90;;;;;;5222754;28;20752;-54
2022/05/28 03:16:42;;;;;;;4.63;2.00;;;8.90;99.90;;;;;;5221043;28;20658;-56
2022/05/28 03:19:13;;;;;;;4.17;2.13;;;8.90;99.90;;;;;;5214919;28;20453;-53
2022/05/28 03:21:43;;;;;;;7.53;2.00;;;8.90;99.90;;;;;;5227881;28;20203;-53
2022/05/28 03:24:14;;;;;;;5.73;1.70;;;8.90;99.90;;;;;;5227120;28;20651;-53
2022/05/28 03:26:44;;;;;;;3.93;1.37;;;9.00;99.90;;;;;;5216513;28;20183;-54
2022/05/28 03:29:15;;;;;;;3.33;1.47;;;9.10;99.90;;;;;;5213445;28;20206;-54
2022/05/28 03:31:45;;;;;;;10.53;2.00;;;9.20;99.90;;;;;;5217813;28;20203;-53
2022/05/28 03:34:16;;;;;;;3.57;1.30;;;9.20;99.90;;;;;;5215494;28;20207;-54
2022/05/28 03:36:47;;;;;;;13.33;2.30;;;9.30;99.90;;;;;;5222057;28;20245;-53
2022/05/28 03:39:17;;;;;;;5.20;1.27;;;9.30;99.90;;;;;;5226698;28;20190;-53
2022/05/28 03:41:48;;;;;;;7.60;1.63;;;9.40;99.90;;;;;;5225848;28;20241;-53
2022/05/28 03:44:18;;;;;;;6.37;1.90;;;9.40;99.90;;;;;;5212751;28;20187;-53
2022/05/28 03:46:49;;;;;;;6.83;1.70;;;9.50;99.90;;;;;;5215228;28;20232;-53
2022/05/28 03:49:26;;;;;;;4.80;1.83;;;9.50;99.90;;;;;;5224914;28;20263;-53
2022/05/28 03:51:57;;;;;;;3.27;1.87;;;9.60;99.90;;;;;;5221616;28;20182;-54
2022/05/28 03:54:28;;;;;;;13.47;1.60;;;9.60;99.90;;;;;;5220453;28;20434;-54
2022/05/28 03:57:05;;;;;;;9.17;2.10;;;9.60;99.90;;;;;;5214091;28;20508;-52
2022/05/28 03:59:36;;;;;;;4.83;1.77;;;9.70;99.90;;;;;;5215738;28;20434;-54
2022/05/28 04:02:06;;;;;;;8.37;1.43;;;9.70;99.90;;;;;;5218534;28;20452;-54
2022/05/28 04:04:37;;;;;;;5.53;1.83;;;9.80;99.90;;;;;;5215579;28;20325;-54
2022/05/28 04:07:10;;;;;;;5.17;1.53;;;9.90;99.90;;;;;;5222140;28;20216;-53
2022/05/28 04:09:41;;;;;;;9.47;2.17;;;9.90;99.90;;;;;;5226763;28;20223;-52
2022/05/28 04:12:12;;;;;;;12.87;2.37;;;9.90;99.90;;;;;;5217611;28;20440;-53
2022/05/28 04:14:43;;;;;;;6.17;1.83;;;10.00;99.90;;;;;;5214961;28;20658;-53
2022/05/28 04:17:14;;;;;;;5.37;1.33;;;10.10;99.90;;;;;;5225862;28;20421;-53
2022/05/28 04:19:44;;;;;;;7.40;1.30;;;10.30;99.90;;;;;;5223091;28;20448;-53
2022/05/28 04:22:15;;;;;;;7.70;1.30;;;10.60;99.90;;;;;;5227670;28;20260;-58
2022/05/28 04:24:46;;;;;;;5.50;1.50;;;10.80;99.90;;;;;;5222825;28;20171;-54
2022/05/28 04:27:16;;;;;;;1.33;1.17;;;10.70;99.90;;;;;;5217511;28;20186;-54
2022/05/28 04:29:47;;;;;;;5.20;2.07;;;10.60;99.90;;;;;;5232239;28;20272;-56
2022/05/28 04:32:18;;;;;;;9.37;1.40;;;10.50;99.90;;;;;;5220837;28;20207;-54
2022/05/28 04:34:48;;;;;;;5.97;2.67;;;10.40;99.90;;;;;;5224235;28;20176;-53
2022/05/28 04:37:18;;;;;;;7.40;2.13;;;10.20;99.90;;;;;;5224658;28;20262;-54
2022/05/28 04:39:49;;;;;;;6.07;2.40;;;9.90;99.90;;;;;;5215583;28;20211;-54
2022/05/28 04:42:19;;;;;;;5.10;1.20;;;9.60;99.90;;;;;;5215774;28;20183;-54
2022/05/28 04:44:50;;;;;;;3.60;2.07;;;9.40;99.90;;;;;;5223571;28;20260;-54
2022/05/28 04:47:20;;;;;;;3.37;1.43;;;9.20;99.90;;;;;;5226954;28;20205;-53
2022/05/28 04:49:51;;;;;;;2.83;1.03;;;9.10;99.90;;;;;;5215885;28;20783;-53
2022/05/28 04:52:22;;;;;;;2.63;0.80;;;9.00;99.90;;;;;;5221236;28;20167;-55
2022/05/28 04:54:52;;;;;;;1.90;1.03;;;9.10;99.90;;;;;;5223864;28;20202;-52
2022/05/28 04:57:23;;;;;;;2.93;1.03;;;9.50;99.90;;;;;;5224924;28;20631;-54
2022/05/28 04:59:54;;;;;;;5.00;1.30;;;10.90;99.90;;;;;;5227188;28;20256;-53
2022/05/28 05:02:24;;;;;;;5.07;2.13;;;11.70;99.90;;;;;;5218820;28;20283;-53
2022/05/28 05:04:56;;;;;;;0.70;0.70;;;11.90;99.90;;;;;;5221247;28;20193;-55
2022/05/28 05:07:27;;;;;;;4.60;1.33;;;11.50;99.90;;;;;;5217472;28;20228;-54
2022/05/28 05:09:57;;;;;;;2.23;0.90;;;11.20;99.90;;;;;;5236921;28;20465;-53
2022/05/28 05:12:28;;;;;;;3.13;1.30;;;11.10;99.90;;;;;;5222272;28;20266;-54
2022/05/28 05:14:58;;;;;;;2.40;0.90;;;11.70;99.90;;;;;;5227953;28;20186;-54
2022/05/28 05:17:29;;;;;;;3.33;0.87;;;13.00;99.90;;;;;;5221423;28;20195;-55
2022/05/28 05:19:59;;;;;;;6.20;1.17;;;14.50;99.90;;;;;;5223753;28;20215;-54
2022/05/28 05:22:30;;;;;;;3.80;1.40;;;15.50;99.90;;;;;;5222619;28;20515;-56
2022/05/28 05:25:01;;;;;;;1.30;1.00;;;16.80;93.10;;;;;;5219603;28;20190;-54
2022/05/28 05:27:31;;;;;;;3.27;0.57;;;17.40;88.30;;;;;;5222241;28;20784;-53
2022/05/28 05:30:03;;;;;;;7.27;1.40;;;16.70;81.40;;;;;;5228102;28;20221;-55
2022/05/28 05:32:34;;;;;;;6.40;0.97;;;15.50;86.00;;;;;;5219182;28;20561;-55
2022/05/28 05:35:05;;;;;;;3.03;1.30;;;14.30;92.90;;;;;;5226000;28;20526;-55
2022/05/28 05:37:35;;;;;;;2.27;1.07;;;13.60;99.10;;;;;;5234991;28;20237;-55
2022/05/28 05:40:08;;;;;;;3.80;1.00;;;13.40;99.90;;;;;;5230385;28;20453;-55
2022/05/28 05:42:38;;;;;;;7.27;0.90;;;12.90;99.90;;;;;;5226650;28;20225;-55
2022/05/28 05:45:09;;;;;;;0.97;0.70;;;12.40;99.90;;;;;;5224694;28;20853;-55
2022/05/28 05:47:40;;;;;;;4.20;1.13;;;12.40;99.90;;;;;;5216290;28;20191;-55
2022/05/28 05:50:10;;;;;;;8.43;1.20;;;12.40;99.90;;;;;;5216026;28;20466;-54
2022/05/28 05:52:41;;;;;;;5.83;1.23;;;12.40;99.90;;;;;;5223914;28;20179;-54
2022/05/28 05:55:11;;;;;;;0.93;0.83;;;12.40;99.90;;;;;;5218724;28;20183;-54
2022/05/28 05:57:42;;;;;;;5.90;1.17;;;12.60;99.90;;;;;;5227746;28;20183;-55
2022/05/28 06:00:13;;;;;;;2.73;1.17;;;12.90;99.90;;;;;;5225737;28;20265;-55
2022/05/28 06:02:43;;;;;;;3.23;1.20;;;12.80;99.90;;;;;;5224462;28;20262;-55
2022/05/28 06:05:14;;;;;;;4.23;0.50;;;12.30;99.90;;;;;;5223862;28;20524;-56
2022/05/28 06:07:45;;;;;;;2.23;1.53;;;12.30;99.90;;;;;;5226353;28;20186;-54
2022/05/28 06:10:16;;;;;;;10.23;0.83;;;11.90;99.90;;;;;;5238175;28;20214;-55
2022/05/28 06:12:46;;;;;;;3.00;1.10;;;11.40;99.90;;;;;;5217754;28;20176;-55
2022/05/28 06:15:17;;;;;;;1.40;1.17;;;11.40;99.90;;;;;;5222304;28;20434;-56
2022/05/28 06:17:48;;;;;;;4.43;1.20;;;11.20;99.90;;;;;;5227181;28;20187;-55
2022/05/28 06:20:18;;;;;;;7.67;0.83;;;10.90;99.90;;;;;;5222233;28;20211;-55
2022/05/28 06:22:49;;;;;;;1.43;0.80;;;10.80;99.90;;;;;;5221142;28;20426;-55
2022/05/28 06:25:19;;;;;;;2.50;1.23;;;10.80;99.90;;;;;;5231844;28;20273;-55
2022/05/28 06:27:50;;;;;;;5.83;1.33;;;10.90;99.90;;;;;;5224508;28;20661;-56
2022/05/28 06:30:22;;;;;;;6.73;1.67;;;10.90;99.90;;;;;;5222068;28;20226;-57
2022/05/28 06:32:53;;;;;;;8.80;1.30;;;10.90;99.90;;;;;;5222607;28;20238;-56
2022/05/28 06:35:23;;;;;;;3.97;1.50;;;10.80;99.90;;;;;;5224885;28;20875;-55
2022/05/28 06:37:54;;;;;;;6.30;1.40;;;10.90;99.90;;;;;;5226057;28;20240;-55
2022/05/28 06:40:25;;;;;;;6.40;1.73;;;11.20;99.90;;;;;;5214781;28;20221;-55
2022/05/28 06:42:56;;;;;;;4.57;1.20;;;11.60;99.90;;;;;;5223469;28;20676;-57
2022/05/28 06:45:26;;;;;;;7.47;1.50;;;12.40;99.90;;;;;;5224760;28;20606;-55
2022/05/28 06:47:57;;;;;;;3.20;1.10;;;12.90;99.90;;;;;;5219335;28;20186;-56
2022/05/28 06:53:16;;;;;;;3.10;0.80;;;13.30;99.90;;;;;;5222149;28;20271;-54
2022/05/28 06:55:47;;;;;;;3.40;1.60;;;13.10;99.90;;;;;;5219677;28;20410;-54
2022/05/28 06:58:18;;;;;;;4.83;1.63;;;12.90;99.90;;;;;;5225584;28;20175;-56
2022/05/28 07:00:48;;;;;;;2.83;1.23;;;12.70;99.90;;;;;;5216315;28;20213;-59
2022/05/28 07:03:22;;;;;;;7.20;1.23;;;12.30;99.90;;;;;;5217955;28;20194;-55
2022/05/28 07:05:53;;;;;;;2.87;1.13;;;12.60;99.90;;;;;;5213343;28;20188;-56
2022/05/28 07:08:25;;;;;;;1.27;1.17;;;12.90;99.90;;;;;;5222288;28;20454;-54
2022/05/28 07:10:57;;;;;;;8.67;1.63;;;13.20;99.90;;;;;;5210264;28;20445;-54
2022/05/28 07:13:29;;;;;;;4.00;1.73;;;13.70;99.90;;;;;;5218558;28;20426;-54
2022/05/28 07:15:59;;;;;;;4.97;1.53;;;14.00;99.90;;;;;;5209836;28;20444;-54
2022/05/28 07:18:30;;;;;;;2.50;1.27;;;14.00;99.90;;;;;;5237930;28;20523;-55
2022/05/28 07:21:01;;;;;;;3.50;1.57;;;13.60;99.90;;;;;;5225528;28;20210;-56
2022/05/28 07:23:32;;;;;;;6.40;2.00;;;13.30;99.90;;;;;;5224306;28;20582;-55
2022/05/28 07:26:06;;;;;;;4.50;1.70;;;13.40;99.90;;;;;;5222788;28;20263;-56
2022/05/28 07:28:38;;;;;;;2.53;1.23;;;14.90;99.60;;;;;;5217877;28;20518;-54
2022/05/28 07:31:13;;;;;;;1.97;1.50;;;17.40;79.20;;;;;;5224719;28;20563;-55
2022/05/28 07:33:45;;;;;;;1.20;1.10;;;17.20;71.10;;;;;;5248065;28;20940;-55
2022/05/28 07:36:18;;;;;;;6.47;2.20;;;16.20;72.30;;;;;;5225348;28;20448;-55
2022/05/28 07:38:50;;;;;;;4.17;1.73;;;15.60;77.20;;;;;;5220804;28;20437;-56
2022/05/28 07:41:23;;;;;;;13.00;1.77;;;14.90;80.90;;;;;;5219233;28;20470;-55
2022/05/28 07:43:56;;;;;;;5.40;1.90;;;14.30;82.70;;;;;;5221140;28;20452;-56
2022/05/28 07:46:29;;;;;;;2.00;1.77;;;13.40;89.30;;;;;;5214000;28;20850;-55
2022/05/28 07:49:03;;;;;;;4.20;1.90;;;13.20;94.40;;;;;;5222785;28;20520;-55
2022/05/28 07:51:35;;;;;;;6.53;1.47;;;13.20;95.80;;;;;;5228754;28;20448;-55
2022/05/28 07:54:06;;;;;;;3.00;2.03;;;13.50;95.80;;;;;;5222555;28;20972;-57
2022/05/28 07:56:37;;;;;;;5.63;1.47;;;14.10;95.40;;;;;;5222595;28;20474;-56
2022/05/28 07:59:07;;;;;;;1.47;1.40;;;15.40;89.00;;;;;;5217277;28;20242;-56
2022/05/28 08:01:41;;;;;;;10.53;1.40;;;15.70;80.60;;;;;;5220134;28;20306;-54
2022/05/28 08:04:13;;;;;;;12.33;1.60;;;15.50;79.80;;;;;;5220050;28;20677;-57
2022/05/28 08:06:44;;;;;;;6.30;1.27;;;15.10;80.90;;;;;;5224926;28;20873;-56
2022/05/28 08:09:14;;;;;;;6.83;1.73;;;15.20;80.70;;;;;;5226417;28;20559;-56
2022/05/28 08:11:45;;;;;;;2.70;1.27;;;15.00;79.40;;;;;;5213997;28;20221;-56
2022/05/28 08:14:16;;;;;;;5.43;1.43;;;14.70;78.70;;;;;;5221402;28;20220;-57
2022/05/28 08:16:46;;;;;;;4.93;1.67;;;14.30;79.60;;;;;;5214460;28;20262;-56
2022/05/28 08:19:17;;;;;;;2.50;1.30;;;14.60;81.40;;;;;;5220703;28;20187;-55
2022/05/28 08:24:37;;;;;;;5.70;1.70;;;16.40;70.50;;;;;;5215540;28;20190;-55
2022/05/28 08:27:07;;;;;;;4.33;1.30;;;17.40;63.70;;;;;;5217929;28;20430;-55
2022/05/28 08:29:38;;;;;;;10.97;2.40;;;18.10;59.10;;;;;;5216281;28;20457;-57
2022/05/28 08:32:08;;;;;;;4.20;1.53;;;17.20;58.10;;;;;;5215738;28;20361;-56
2022/05/28 08:34:41;;;;;;;4.73;1.77;;;15.90;62.90;;;;;;5222380;28;20266;-56
2022/05/28 08:37:12;;;;;;;6.17;1.90;;;15.00;63.40;;;;;;5226139;28;20625;-56
2022/05/28 08:39:43;;;;;;;2.00;1.10;;;14.10;66.40;;;;;;5216796;28;20461;-55
2022/05/28 08:42:23;;;;;;;8.90;1.80;;;13.80;70.40;;;;;;5215471;28;20453;-56
2022/05/28 08:44:55;;;;;;;6.27;1.67;;;14.50;69.30;;;;;;5220081;28;20853;-56
2022/05/28 08:47:33;;;;;;;4.23;1.90;;;15.10;67.30;;;;;;5222828;28;20511;-55
2022/05/28 08:50:07;;;;;;;4.23;1.63;;;15.10;66.10;;;;;;5227687;28;20480;-56
2022/05/28 08:52:45;;;;;;;2.93;1.03;;;15.00;67.70;;;;;;5228943;28;20423;-55
2022/05/28 08:55:23;;;;;;;5.93;1.60;;;15.10;66.20;;;;;;5224055;28;20432;-56
2022/05/28 08:58:10;;;;;;;7.60;1.30;;;15.20;65.10;;;;;;5225882;28;20433;-55
2022/05/28 09:00:46;;;;;;;4.80;1.70;;;15.00;65.70;;;;;;5234662;28;20490;-56
2022/05/28 09:03:22;;;;;;;3.63;1.90;;;14.70;67.60;;;;;;5213308;28;20509;-56
2022/05/28 09:06:04;;;;;;;4.90;1.93;;;14.40;70.00;;;;;;5225598;28;20903;-58
2022/05/28 09:08:39;;;;;;;10.80;2.07;;;14.10;72.10;;;;;;5226139;28;20464;-56
2022/05/28 09:11:24;;;;;;;2.93;1.20;;;13.90;71.80;;;;;;5215618;28;20440;-56
2022/05/28 09:13:55;;;;;;;1.30;0.70;;;13.70;70.10;;;;;;5240152;28;20496;-56
2022/05/28 09:16:32;;;;;;;4.63;2.80;;;13.50;70.40;;;;;;5220645;28;20519;-55
2022/05/28 09:19:25;;;;;;;13.63;2.20;;;13.40;72.00;;;;;;5225093;28;20185;-56
2022/05/28 09:21:56;;;;;;;16.33;1.67;;;13.30;72.40;;;;;;5232610;28;20500;-55
2022/05/28 09:24:29;;;;;;;9.40;3.57;;;13.60;71.70;;;;;;5222213;28;20440;-55
2022/05/28 09:27:21;;;;;;;3.40;1.77;;;13.80;71.30;;;;;;5227887;28;20182;-54
2022/05/28 09:30:17;;;;;;;8.47;1.97;;;14.00;68.90;;;;;;5221927;28;20462;-57
2022/05/28 09:33:12;;;;;;;7.33;1.47;;;14.40;68.20;;;;;;5227675;28;20425;-56
2022/05/28 09:35:51;;;;;;;3.33;1.20;;;14.50;65.70;;;;;;5217299;28;20431;-58
2022/05/28 09:39:04;;;;;;;4.97;1.87;;;14.50;66.20;;;;;;5225439;28;20913;-61
2022/05/28 09:41:55;;;;;;;4.97;2.00;;;14.80;63.80;;;;;;5213852;28;20464;-56
2022/05/28 09:44:35;;;;;;;10.70;2.03;;;15.50;63.90;;;;;;5222841;28;20517;-55
2022/05/28 09:47:11;;;;;;;8.57;1.53;;;15.80;59.70;;;;;;5215226;28;20881;-57
2022/05/28 09:49:51;;;;;;;4.10;1.70;;;15.40;60.50;;;;;;5220567;28;20548;-55
2022/05/28 09:52:31;;;;;;;7.20;2.03;;;15.30;61.00;;;;;;5224894;28;21719;-57
2022/05/28 09:55:19;;;;;;;2.13;1.70;;;15.40;58.90;;;;;;5220519;28;20428;-56
2022/05/28 09:57:59;;;;;;;7.50;1.40;;;15.20;58.50;;;;;;5215457;28;20438;-54
2022/05/28 10:00:30;;;;;;;5.10;1.83;;;15.30;58.50;;;;;;5217602;28;20475;-55
2022/05/28 10:05:54;;;;;;;10.60;1.90;;;14.90;59.50;;;;;;5208910;28;20484;-55
2022/05/28 10:08:32;;;;;;;3.50;1.40;;;14.60;62.30;;;;;;5232281;28;20430;-55
2022/05/28 10:11:05;;;;;;;2.87;1.53;;;14.30;65.80;;;;;;5229052;28;20564;-55
2022/05/28 10:13:46;;;;;;;2.43;1.00;;;14.10;67.20;;;;;;5224712;28;20481;-55
2022/05/28 10:16:20;;;;;;;3.50;1.10;;;14.40;68.60;;;;;;5227727;28;20430;-53
2022/05/28 10:18:57;;;;;;;3.37;1.50;;;14.60;67.60;;;;;;5233128;28;20425;-55
2022/05/28 10:21:37;;;;;;;7.20;1.17;;;14.50;67.70;;;;;;5223005;28;20453;-55
2022/05/28 10:24:17;;;;;;;7.90;1.80;;;14.60;67.30;;;;;;5227427;28;20499;-57
2022/05/28 10:26:53;;;;;;;3.17;1.23;;;14.60;67.30;;;;;;5219207;28;20437;-52
2022/05/28 10:29:38;;;;;;;4.47;1.23;;;14.70;68.30;;;;;;5229258;28;21003;-55
2022/05/28 10:32:36;;;;;;;4.33;1.93;;;14.80;69.20;;;;;;5226352;28;20941;-56
2022/05/28 10:35:24;;;;;;;6.27;1.60;;;14.80;68.50;;;;;;5214261;28;20926;-55
2022/05/28 10:38:11;;;;;;;6.20;1.90;;;14.90;67.20;;;;;;5219490;28;20405;-56
2022/05/28 10:40:48;;;;;;;5.00;1.80;;;15.00;66.30;;;;;;5229130;28;20554;-55
2022/05/28 10:43:33;;;;;;;4.70;2.00;;;15.10;65.50;;;;;;5228241;28;20447;-55
2022/05/28 10:46:14;;;;;;;4.77;1.50;;;15.30;66.70;;;;;;5229994;28;20491;-54
2022/05/28 10:49:02;;;;;;;6.87;2.27;;;15.70;64.90;;;;;;5223758;28;20465;-54
2022/05/28 10:51:52;;;;;;;5.47;1.70;;;16.00;62.70;;;;;;5216016;28;20450;-56
2022/05/28 10:54:31;;;;;;;6.23;1.63;;;16.20;61.80;;;;;;5224354;28;20520;-54
2022/05/28 10:57:35;;;;;;;3.50;1.67;;;16.00;60.90;;;;;;5227950;28;20448;-55
2022/05/28 11:00:26;;;;;;;7.77;2.00;;;15.60;61.20;;;;;;5223306;28;20503;-54
2022/05/28 11:03:30;;;;;;;14.93;2.37;;;15.20;62.50;;;;;;5218041;28;20440;-54
2022/05/28 11:06:31;;;;;;;15.57;1.97;;;14.80;64.20;;;;;;5208717;28;20525;-54
2022/05/28 11:09:32;;;;;;;6.47;1.80;;;14.60;62.20;;;;;;5227789;28;20493;-55
2022/05/28 11:12:10;;;;;;;3.57;2.10;;;14.50;62.20;;;;;;5222177;28;20437;-56
2022/05/28 11:15:02;;;;;;;4.43;1.47;;;14.70;63.00;;;;;;5226441;28;20416;-54
2022/05/28 11:17:45;;;;;;;6.87;2.03;;;15.20;61.40;;;;;;5234636;28;20406;-53
2022/05/28 11:20:38;;;;;;;6.80;2.23;;;15.50;59.80;;;;;;5226339;28;20441;-53
2022/05/28 11:23:23;;;;;;;4.10;1.60;;;15.60;57.60;;;;;;5233731;28;20869;-54
2022/05/28 11:26:31;;;;;;;4.63;1.83;;;15.60;56.40;;;;;;5219692;28;20475;-55
2022/05/28 11:29:32;;;;;;;11.93;1.90;;;15.70;56.60;;;;;;5216521;28;20464;-56
2022/05/28 11:32:15;;;;;;;7.03;2.70;;;15.90;55.10;;;;;;5215852;28;20876;-57
2022/05/28 11:35:00;;;;;;;12.03;2.50;;;16.00;55.30;;;;;;5223116;28;20462;-55
2022/05/28 11:37:37;;;;;;;7.57;2.47;;;16.00;55.70;;;;;;5225731;28;20818;-54
2022/05/28 11:40:20;;;;;;;20.13;1.80;;;16.00;56.40;;;;;;5224573;28;20809;-59
2022/05/28 11:43:11;;;;;;;6.20;1.63;;;16.20;56.50;;;;;;5216603;28;20437;-59
2022/05/28 11:45:53;;;;;;;3.90;2.00;;;16.30;56.30;;;;;;5217078;28;20525;-59
2022/05/28 11:51:40;;;;;;;1.73;1.63;;;16.10;56.20;;;;;;5224607;28;20532;-58
2022/05/28 11:54:24;;;;;;;9.23;2.93;;;15.90;62.90;;;;;;5223142;28;20480;-59
2022/05/28 11:57:01;;;;;;;2.87;2.00;;;15.80;65.60;;;;;;5211579;28;20456;-59
2022/05/28 11:59:35;;;;;;;6.47;3.80;;;16.00;64.70;;;;;;5221587;28;20455;-58
2022/05/28 12:02:14;;;;;;;10.67;3.33;;;16.20;64.00;;;;;;5225688;28;20448;-58
2022/05/28 12:04:44;;;;;;;5.57;2.73;;;16.30;63.70;;;;;;5219468;28;21005;-58
2022/05/28 12:07:37;;;;;;;7.10;2.47;;;16.40;64.40;;;;;;5232740;28;20525;-58
2022/05/28 12:10:13;;;;;;;3.73;1.93;;;16.40;63.20;;;;;;5232722;28;20206;-59
2022/05/28 12:13:00;;;;;;;5.53;1.63;;;16.40;64.00;;;;;;5222759;28;20774;-57
2022/05/28 12:15:34;;;;;;;8.87;1.50;;;16.30;63.70;;;;;;5214215;28;20437;-57
2022/05/28 12:18:14;;;;;;;7.90;4.70;;;16.10;63.70;;;;;;5222003;28;20479;-58
2022/05/28 12:20:52;;;;;;;2.40;1.37;;;16.10;64.50;;;;;;5222233;28;20925;-58
2022/05/28 12:23:41;;;;;;;4.47;2.40;;;16.00;64.20;;;;;;5223491;28;20424;-59
2022/05/28 12:26:47;;;;;;;4.33;1.63;;;16.10;65.30;;;;;;5229020;28;20422;-58
2022/05/28 12:29:33;;;;;;;1.97;1.00;;;16.40;63.10;;;;;;5217859;28;20846;-58
2022/05/28 12:32:19;;;;;;;4.83;1.33;;;16.60;60.50;;;;;;5232181;28;20459;-59
2022/05/28 12:35:05;;;;;;;4.60;1.80;;;16.80;60.00;;;;;;5219408;28;20516;-58
2022/05/28 12:37:35;;;;;;;5.50;1.90;;;16.80;59.00;;;;;;5219827;28;20456;-58
2022/05/28 12:40:17;;;;;;;3.80;2.00;;;16.70;58.50;;;;;;5228125;28;20461;-58
2022/05/28 12:42:48;;;;;;;8.53;2.23;;;16.40;59.90;;;;;;5212237;28;20176;-59
2022/05/28 12:45:38;;;;;;;5.40;1.20;;;16.00;65.60;;;;;;5223818;28;20971;-59
2022/05/28 12:48:21;;;;;;;1.23;1.20;;;15.50;67.90;;;;;;5224980;28;20189;-58
2022/05/28 12:51:03;;;;;;;5.03;2.87;;;15.70;66.40;;;;;;5221297;28;20532;-60
2022/05/28 12:53:59;;;;;;;7.63;4.70;;;16.20;65.30;;;;;;5230148;28;20456;-60
2022/05/28 12:56:35;;;;;;;2.93;2.07;;;16.80;62.20;;;;;;5223055;28;20426;-60
2022/05/28 12:59:32;;;;;;;6.17;1.90;;;16.70;59.20;;;;;;5238348;28;20829;-59
2022/05/28 13:02:34;;;;;;;2.10;1.97;;;16.90;61.10;;;;;;5226976;28;20433;-58
2022/05/28 13:05:14;;;;;;;7.70;1.60;;;16.70;60.80;;;;;;5227809;28;20429;-59
2022/05/28 13:07:52;;;;;;;3.10;2.27;;;16.70;60.60;;;;;;5206919;28;20488;-59
2022/05/28 13:10:26;;;;;;;3.83;1.50;;;16.90;60.20;;;;;;5220321;28;20980;-59
2022/05/28 13:13:21;;;;;;;3.07;1.77;;;16.70;59.20;;;;;;5218418;28;20795;-59
2022/05/28 13:16:10;;;;;;;8.43;2.90;;;16.20;58.20;;;;;;5237402;28;20429;-59
2022/05/28 13:19:05;;;;;;;3.30;2.50;;;16.00;58.30;;;;;;5234539;28;20423;-59
2022/05/28 13:21:47;;;;;;;2.30;1.30;;;16.00;59.50;;;;;;5209939;28;20469;-58
2022/05/28 13:24:57;;;;;;;3.30;1.70;;;15.80;59.60;;;;;;5226976;28;20781;-59
2022/05/28 13:27:51;;;;;;;4.60;2.40;;;15.90;59.00;;;;;;5225387;28;20581;-59
2022/05/28 13:30:41;;;;;;;5.33;2.00;;;16.10;57.40;;;;;;5223179;28;20601;-59
2022/05/28 13:33:15;;;;;;;2.40;1.60;;;16.30;56.30;;;;;;5237256;28;20425;-59
2022/05/28 13:35:50;;;;;;;1.70;1.60;;;16.50;56.20;;;;;;5220562;28;20410;-58
2022/05/28 13:38:27;;;;;;;1.87;1.40;;;16.70;56.00;;;;;;5229264;28;20583;-58
2022/05/28 13:41:01;;;;;;;2.93;1.20;;;16.60;56.50;;;;;;5226594;28;20472;-57
2022/05/28 13:43:40;;;;;;;4.97;1.40;;;16.50;56.50;;;;;;5224859;28;20426;-59
2022/05/28 13:46:12;;;;;;;5.83;1.97;;;16.30;56.80;;;;;;5226718;28;20441;-59
2022/05/28 13:48:54;;;;;;;5.57;2.20;;;16.30;57.20;;;;;;5221113;28;20469;-59